sensor_id;sensor_type;location;lat;lon;timestamp;P1;durP1;ratioP1;P2;durP2;ratioP2
13979;SDS011;73871;49.900;8.594;2023-12-22T00:01:26;0.70;;;0.40;;
13979;SDS011;73871;49.900;8.594;2023-12-22T00:03:53;0.90;;;0.40;;
13979;SDS011;73871;49.900;8.594;2023-12-22T00:06:19;0.93;;;0.27;;
13979;SDS011;73871;49.900;8.594;2023-12-22T00:08:46;1.83;;;0.43;;
13979;SDS011;73871;49.900;8.594;2023-12-22T00:11:13;1.67;;;0.30;;
13979;SDS011;73871;49.900;8.594;2023-12-22T00:13:40;0.73;;;0.33;;
13979;SDS011;73871;49.900;8.594;2023-12-22T00:16:06;0.73;;;0.30;;
13979;SDS011;73871;49.900;8.594;2023-12-22T00:18:33;0.40;;;0.20;;
13979;SDS011;73871;49.900;8.594;2023-12-22T00:21:00;0.50;;;0.23;;
13979;SDS011;73871;49.900;8.594;2023-12-22T00:23:27;0.53;;;0.20;;
13979;SDS011;73871;49.900;8.594;2023-12-22T00:25:53;0.30;;;0.10;;
13979;SDS011;73871;49.900;8.594;2023-12-22T00:28:20;0.87;;;0.20;;
13979;SDS011;73871;49.900;8.594;2023-12-22T00:30:47;1.23;;;0.20;;
13979;SDS011;73871;49.900;8.594;2023-12-22T00:33:14;0.60;;;0.20;;
13979;SDS011;73871;49.900;8.594;2023-12-22T00:35:40;0.43;;;0.20;;
13979;SDS011;73871;49.900;8.594;2023-12-22T00:38:07;0.47;;;0.20;;
13979;SDS011;73871;49.900;8.594;2023-12-22T00:40:34;0.50;;;0.10;;
13979;SDS011;73871;49.900;8.594;2023-12-22T00:43:01;0.37;;;0.10;;
13979;SDS011;73871;49.900;8.594;2023-12-22T00:45:28;0.27;;;0.10;;
13979;SDS011;73871;49.900;8.594;2023-12-22T00:47:54;2.93;;;0.23;;
13979;SDS011;73871;49.900;8.594;2023-12-22T00:50:21;0.50;;;0.20;;
13979;SDS011;73871;49.900;8.594;2023-12-22T00:52:48;0.93;;;0.20;;
13979;SDS011;73871;49.900;8.594;2023-12-22T00:55:15;1.73;;;0.20;;
13979;SDS011;73871;49.900;8.594;2023-12-22T00:57:41;0.40;;;0.20;;
13979;SDS011;73871;49.900;8.594;2023-12-22T01:00:09;1.10;;;0.40;;
13979;SDS011;73871;49.900;8.594;2023-12-22T01:02:38;0.87;;;0.17;;
13979;SDS011;73871;49.900;8.594;2023-12-22T01:05:05;1.03;;;0.30;;
13979;SDS011;73871;49.900;8.594;2023-12-22T01:07:32;1.30;;;0.47;;
13979;SDS011;73871;49.900;8.594;2023-12-22T01:09:59;1.70;;;0.40;;
13979;SDS011;73871;49.900;8.594;2023-12-22T01:12:27;1.77;;;0.60;;
13979;SDS011;73871;49.900;8.594;2023-12-22T01:14:55;1.87;;;0.77;;
13979;SDS011;73871;49.900;8.594;2023-12-22T01:17:22;1.20;;;0.60;;
13979;SDS011;73871;49.900;8.594;2023-12-22T01:19:49;1.50;;;0.63;;
13979;SDS011;73871;49.900;8.594;2023-12-22T01:22:17;7.17;;;0.63;;
13979;SDS011;73871;49.900;8.594;2023-12-22T01:24:44;1.73;;;0.40;;
13979;SDS011;73871;49.900;8.594;2023-12-22T01:27:11;0.87;;;0.50;;
13979;SDS011;73871;49.900;8.594;2023-12-22T01:29:38;2.80;;;0.43;;
13979;SDS011;73871;49.900;8.594;2023-12-22T01:32:05;2.87;;;0.70;;
13979;SDS011;73871;49.900;8.594;2023-12-22T01:34:32;1.53;;;0.57;;
13979;SDS011;73871;49.900;8.594;2023-12-22T01:36:59;3.13;;;0.70;;
13979;SDS011;73871;49.900;8.594;2023-12-22T01:39:25;1.10;;;0.30;;
13979;SDS011;73871;49.900;8.594;2023-12-22T01:41:52;2.57;;;0.47;;
13979;SDS011;73871;49.900;8.594;2023-12-22T01:44:19;3.20;;;1.23;;
13979;SDS011;73871;49.900;8.594;2023-12-22T01:46:46;1.60;;;0.50;;
13979;SDS011;73871;49.900;8.594;2023-12-22T01:49:13;2.00;;;0.50;;
13979;SDS011;73871;49.900;8.594;2023-12-22T01:51:41;2.77;;;0.70;;
13979;SDS011;73871;49.900;8.594;2023-12-22T01:54:08;1.67;;;0.60;;
13979;SDS011;73871;49.900;8.594;2023-12-22T01:56:37;2.47;;;0.60;;
13979;SDS011;73871;49.900;8.594;2023-12-22T01:59:04;1.53;;;0.50;;
13979;SDS011;73871;49.900;8.594;2023-12-22T02:01:30;1.23;;;0.60;;
13979;SDS011;73871;49.900;8.594;2023-12-22T02:03:58;1.37;;;0.47;;
13979;SDS011;73871;49.900;8.594;2023-12-22T02:06:25;3.00;;;0.70;;
13979;SDS011;73871;49.900;8.594;2023-12-22T02:08:53;1.40;;;0.50;;
13979;SDS011;73871;49.900;8.594;2023-12-22T02:11:20;1.03;;;0.50;;
13979;SDS011;73871;49.900;8.594;2023-12-22T02:13:47;3.23;;;0.57;;
13979;SDS011;73871;49.900;8.594;2023-12-22T02:16:21;1.70;;;0.43;;
13979;SDS011;73871;49.900;8.594;2023-12-22T02:18:50;2.53;;;0.60;;
13979;SDS011;73871;49.900;8.594;2023-12-22T02:21:21;0.67;;;0.37;;
13979;SDS011;73871;49.900;8.594;2023-12-22T02:23:48;2.10;;;0.40;;
13979;SDS011;73871;49.900;8.594;2023-12-22T02:26:34;0.97;;;0.57;;
13979;SDS011;73871;49.900;8.594;2023-12-22T02:29:08;1.17;;;0.30;;
13979;SDS011;73871;49.900;8.594;2023-12-22T02:31:41;2.23;;;0.60;;
13979;SDS011;73871;49.900;8.594;2023-12-22T02:34:15;0.70;;;0.50;;
13979;SDS011;73871;49.900;8.594;2023-12-22T02:36:45;1.67;;;0.50;;
13979;SDS011;73871;49.900;8.594;2023-12-22T02:39:14;2.13;;;0.63;;
13979;SDS011;73871;49.900;8.594;2023-12-22T02:41:42;0.93;;;0.50;;
13979;SDS011;73871;49.900;8.594;2023-12-22T02:44:10;2.63;;;0.67;;
13979;SDS011;73871;49.900;8.594;2023-12-22T02:46:36;2.37;;;0.60;;
13979;SDS011;73871;49.900;8.594;2023-12-22T02:49:03;1.63;;;0.60;;
13979;SDS011;73871;49.900;8.594;2023-12-22T02:51:30;1.40;;;0.40;;
13979;SDS011;73871;49.900;8.594;2023-12-22T02:53:57;1.90;;;0.43;;
13979;SDS011;73871;49.900;8.594;2023-12-22T02:56:24;0.50;;;0.30;;
13979;SDS011;73871;49.900;8.594;2023-12-22T02:58:50;2.20;;;0.50;;
13979;SDS011;73871;49.900;8.594;2023-12-22T03:01:17;3.47;;;0.50;;
13979;SDS011;73871;49.900;8.594;2023-12-22T03:03:44;1.07;;;0.43;;
13979;SDS011;73871;49.900;8.594;2023-12-22T03:06:11;2.20;;;0.83;;
13979;SDS011;73871;49.900;8.594;2023-12-22T03:08:38;4.57;;;0.50;;
13979;SDS011;73871;49.900;8.594;2023-12-22T03:11:04;0.47;;;0.33;;
13979;SDS011;73871;49.900;8.594;2023-12-22T03:13:31;1.20;;;0.50;;
13979;SDS011;73871;49.900;8.594;2023-12-22T03:15:58;2.27;;;0.70;;
13979;SDS011;73871;49.900;8.594;2023-12-22T03:18:24;0.60;;;0.30;;
13979;SDS011;73871;49.900;8.594;2023-12-22T03:20:51;2.13;;;0.50;;
13979;SDS011;73871;49.900;8.594;2023-12-22T03:23:18;2.20;;;0.60;;
13979;SDS011;73871;49.900;8.594;2023-12-22T03:25:44;1.53;;;0.57;;
13979;SDS011;73871;49.900;8.594;2023-12-22T03:28:11;2.43;;;0.63;;
13979;SDS011;73871;49.900;8.594;2023-12-22T03:30:38;3.80;;;1.00;;
13979;SDS011;73871;49.900;8.594;2023-12-22T03:33:05;2.00;;;0.73;;
13979;SDS011;73871;49.900;8.594;2023-12-22T03:35:33;1.47;;;0.40;;
13979;SDS011;73871;49.900;8.594;2023-12-22T03:37:59;2.17;;;0.50;;
13979;SDS011;73871;49.900;8.594;2023-12-22T03:40:26;1.80;;;0.50;;
13979;SDS011;73871;49.900;8.594;2023-12-22T03:42:53;1.77;;;0.60;;
13979;SDS011;73871;49.900;8.594;2023-12-22T03:45:20;1.97;;;0.83;;
13979;SDS011;73871;49.900;8.594;2023-12-22T03:47:47;1.30;;;0.70;;
13979;SDS011;73871;49.900;8.594;2023-12-22T03:50:14;2.77;;;0.70;;
13979;SDS011;73871;49.900;8.594;2023-12-22T03:52:41;1.93;;;0.73;;
13979;SDS011;73871;49.900;8.594;2023-12-22T03:55:07;5.50;;;1.07;;
13979;SDS011;73871;49.900;8.594;2023-12-22T03:57:34;1.97;;;0.87;;
13979;SDS011;73871;49.900;8.594;2023-12-22T04:00:01;5.73;;;1.10;;
13979;SDS011;73871;49.900;8.594;2023-12-22T04:02:29;2.07;;;0.70;;
13979;SDS011;73871;49.900;8.594;2023-12-22T04:04:55;4.00;;;1.10;;
13979;SDS011;73871;49.900;8.594;2023-12-22T04:07:22;4.30;;;0.90;;
13979;SDS011;73871;49.900;8.594;2023-12-22T04:09:49;2.80;;;1.00;;
13979;SDS011;73871;49.900;8.594;2023-12-22T04:12:16;3.17;;;0.97;;
13979;SDS011;73871;49.900;8.594;2023-12-22T04:14:42;3.80;;;1.07;;
13979;SDS011;73871;49.900;8.594;2023-12-22T04:17:10;4.13;;;1.03;;
13979;SDS011;73871;49.900;8.594;2023-12-22T04:19:36;4.33;;;1.10;;
13979;SDS011;73871;49.900;8.594;2023-12-22T04:22:03;3.07;;;0.90;;
13979;SDS011;73871;49.900;8.594;2023-12-22T04:24:30;2.67;;;0.83;;
13979;SDS011;73871;49.900;8.594;2023-12-22T04:26:57;4.00;;;1.00;;
13979;SDS011;73871;49.900;8.594;2023-12-22T04:29:24;3.47;;;1.00;;
13979;SDS011;73871;49.900;8.594;2023-12-22T04:31:50;3.83;;;1.10;;
13979;SDS011;73871;49.900;8.594;2023-12-22T04:34:17;3.67;;;1.10;;
13979;SDS011;73871;49.900;8.594;2023-12-22T04:36:44;5.50;;;1.10;;
13979;SDS011;73871;49.900;8.594;2023-12-22T04:39:13;3.07;;;0.90;;
13979;SDS011;73871;49.900;8.594;2023-12-22T04:41:39;2.90;;;0.70;;
13979;SDS011;73871;49.900;8.594;2023-12-22T04:44:06;2.50;;;0.67;;
13979;SDS011;73871;49.900;8.594;2023-12-22T04:46:33;4.20;;;0.90;;
13979;SDS011;73871;49.900;8.594;2023-12-22T04:49:00;2.37;;;0.90;;
13979;SDS011;73871;49.900;8.594;2023-12-22T04:51:28;4.00;;;0.90;;
13979;SDS011;73871;49.900;8.594;2023-12-22T04:53:54;3.60;;;0.83;;
13979;SDS011;73871;49.900;8.594;2023-12-22T04:56:21;3.07;;;1.07;;
13979;SDS011;73871;49.900;8.594;2023-12-22T04:58:48;2.10;;;0.73;;
13979;SDS011;73871;49.900;8.594;2023-12-22T05:01:15;1.47;;;0.70;;
13979;SDS011;73871;49.900;8.594;2023-12-22T05:03:42;2.47;;;0.53;;
13979;SDS011;73871;49.900;8.594;2023-12-22T05:06:08;3.70;;;0.70;;
13979;SDS011;73871;49.900;8.594;2023-12-22T05:08:35;2.73;;;0.60;;
13979;SDS011;73871;49.900;8.594;2023-12-22T05:11:02;3.70;;;0.90;;
13979;SDS011;73871;49.900;8.594;2023-12-22T05:13:29;4.10;;;0.93;;
13979;SDS011;73871;49.900;8.594;2023-12-22T05:15:56;4.40;;;1.00;;
13979;SDS011;73871;49.900;8.594;2023-12-22T05:18:23;2.73;;;0.73;;
13979;SDS011;73871;49.900;8.594;2023-12-22T05:20:50;2.27;;;0.77;;
13979;SDS011;73871;49.900;8.594;2023-12-22T05:23:19;4.30;;;0.87;;
13979;SDS011;73871;49.900;8.594;2023-12-22T05:25:45;2.33;;;1.13;;
13979;SDS011;73871;49.900;8.594;2023-12-22T05:28:12;4.30;;;1.20;;
13979;SDS011;73871;49.900;8.594;2023-12-22T05:30:39;2.20;;;1.00;;
13979;SDS011;73871;49.900;8.594;2023-12-22T05:33:05;3.90;;;1.10;;
13979;SDS011;73871;49.900;8.594;2023-12-22T05:35:32;6.03;;;1.40;;
13979;SDS011;73871;49.900;8.594;2023-12-22T05:38:01;3.93;;;1.13;;
13979;SDS011;73871;49.900;8.594;2023-12-22T05:40:28;7.77;;;1.77;;
13979;SDS011;73871;49.900;8.594;2023-12-22T05:42:55;4.30;;;1.20;;
13979;SDS011;73871;49.900;8.594;2023-12-22T05:45:21;4.00;;;1.30;;
13979;SDS011;73871;49.900;8.594;2023-12-22T05:47:48;3.90;;;1.00;;
13979;SDS011;73871;49.900;8.594;2023-12-22T05:50:16;4.93;;;1.03;;
13979;SDS011;73871;49.900;8.594;2023-12-22T05:52:43;5.57;;;1.50;;
13979;SDS011;73871;49.900;8.594;2023-12-22T05:55:11;3.33;;;0.90;;
13979;SDS011;73871;49.900;8.594;2023-12-22T05:57:37;4.50;;;0.90;;
13979;SDS011;73871;49.900;8.594;2023-12-22T06:00:04;2.00;;;0.80;;
13979;SDS011;73871;49.900;8.594;2023-12-22T06:02:33;3.03;;;0.67;;
13979;SDS011;73871;49.900;8.594;2023-12-22T06:05:00;2.43;;;0.70;;
13979;SDS011;73871;49.900;8.594;2023-12-22T06:07:27;3.83;;;1.07;;
13979;SDS011;73871;49.900;8.594;2023-12-22T06:09:54;2.37;;;0.90;;
13979;SDS011;73871;49.900;8.594;2023-12-22T06:12:21;1.87;;;0.80;;
13979;SDS011;73871;49.900;8.594;2023-12-22T06:14:47;3.03;;;0.70;;
13979;SDS011;73871;49.900;8.594;2023-12-22T06:17:14;4.17;;;0.80;;
13979;SDS011;73871;49.900;8.594;2023-12-22T06:19:41;2.70;;;0.90;;
13979;SDS011;73871;49.900;8.594;2023-12-22T06:22:07;2.63;;;0.83;;
13979;SDS011;73871;49.900;8.594;2023-12-22T06:24:34;3.50;;;1.00;;
13979;SDS011;73871;49.900;8.594;2023-12-22T06:27:02;3.37;;;1.00;;
13979;SDS011;73871;49.900;8.594;2023-12-22T06:29:29;2.33;;;0.80;;
13979;SDS011;73871;49.900;8.594;2023-12-22T06:31:57;2.70;;;0.83;;
13979;SDS011;73871;49.900;8.594;2023-12-22T06:34:24;4.40;;;0.93;;
13979;SDS011;73871;49.900;8.594;2023-12-22T06:36:52;3.73;;;1.27;;
13979;SDS011;73871;49.900;8.594;2023-12-22T06:39:18;2.47;;;0.80;;
13979;SDS011;73871;49.900;8.594;2023-12-22T06:41:46;4.07;;;1.30;;
13979;SDS011;73871;49.900;8.594;2023-12-22T06:44:12;3.70;;;1.20;;
13979;SDS011;73871;49.900;8.594;2023-12-22T06:46:39;5.37;;;0.90;;
13979;SDS011;73871;49.900;8.594;2023-12-22T06:49:06;5.00;;;1.80;;
13979;SDS011;73871;49.900;8.594;2023-12-22T06:51:33;3.20;;;1.17;;
13979;SDS011;73871;49.900;8.594;2023-12-22T06:54:03;6.33;;;1.37;;
13979;SDS011;73871;49.900;8.594;2023-12-22T06:56:31;3.47;;;1.10;;
13979;SDS011;73871;49.900;8.594;2023-12-22T06:58:59;3.47;;;1.23;;
13979;SDS011;73871;49.900;8.594;2023-12-22T07:01:27;3.27;;;1.00;;
13979;SDS011;73871;49.900;8.594;2023-12-22T07:03:56;4.97;;;1.17;;
13979;SDS011;73871;49.900;8.594;2023-12-22T07:06:22;7.00;;;1.57;;
13979;SDS011;73871;49.900;8.594;2023-12-22T07:11:43;3.80;;;0.97;;
13979;SDS011;73871;49.900;8.594;2023-12-22T07:14:18;3.57;;;1.20;;
13979;SDS011;73871;49.900;8.594;2023-12-22T07:16:45;2.57;;;1.10;;
13979;SDS011;73871;49.900;8.594;2023-12-22T07:19:12;3.57;;;1.37;;
13979;SDS011;73871;49.900;8.594;2023-12-22T07:21:39;3.50;;;1.17;;
13979;SDS011;73871;49.900;8.594;2023-12-22T07:24:10;2.83;;;1.10;;
13979;SDS011;73871;49.900;8.594;2023-12-22T07:26:36;5.83;;;1.37;;
13979;SDS011;73871;49.900;8.594;2023-12-22T07:29:04;4.23;;;1.20;;
13979;SDS011;73871;49.900;8.594;2023-12-22T07:31:31;5.17;;;1.43;;
13979;SDS011;73871;49.900;8.594;2023-12-22T07:33:57;7.70;;;1.70;;
13979;SDS011;73871;49.900;8.594;2023-12-22T07:36:24;6.37;;;1.70;;
13979;SDS011;73871;49.900;8.594;2023-12-22T07:38:51;5.73;;;1.90;;
13979;SDS011;73871;49.900;8.594;2023-12-22T07:41:17;5.43;;;1.63;;
13979;SDS011;73871;49.900;8.594;2023-12-22T07:43:45;6.63;;;1.90;;
13979;SDS011;73871;49.900;8.594;2023-12-22T07:46:16;6.23;;;1.77;;
13979;SDS011;73871;49.900;8.594;2023-12-22T07:48:44;8.27;;;1.67;;
13979;SDS011;73871;49.900;8.594;2023-12-22T07:51:11;7.47;;;1.80;;
13979;SDS011;73871;49.900;8.594;2023-12-22T07:53:38;7.13;;;2.03;;
13979;SDS011;73871;49.900;8.594;2023-12-22T07:56:05;8.10;;;2.17;;
13979;SDS011;73871;49.900;8.594;2023-12-22T07:58:34;5.17;;;1.90;;
13979;SDS011;73871;49.900;8.594;2023-12-22T08:01:01;7.27;;;1.90;;
13979;SDS011;73871;49.900;8.594;2023-12-22T08:03:28;7.70;;;1.60;;
13979;SDS011;73871;49.900;8.594;2023-12-22T08:05:55;6.17;;;1.70;;
13979;SDS011;73871;49.900;8.594;2023-12-22T08:08:22;6.37;;;1.80;;
13979;SDS011;73871;49.900;8.594;2023-12-22T08:10:49;6.57;;;1.87;;
13979;SDS011;73871;49.900;8.594;2023-12-22T08:13:15;5.20;;;1.70;;
13979;SDS011;73871;49.900;8.594;2023-12-22T08:15:43;9.73;;;2.33;;
13979;SDS011;73871;49.900;8.594;2023-12-22T08:18:10;4.53;;;1.23;;
13979;SDS011;73871;49.900;8.594;2023-12-22T08:20:37;6.63;;;1.83;;
13979;SDS011;73871;49.900;8.594;2023-12-22T08:23:08;6.17;;;1.80;;
13979;SDS011;73871;49.900;8.594;2023-12-22T08:25:38;4.93;;;1.77;;
13979;SDS011;73871;49.900;8.594;2023-12-22T08:28:07;8.03;;;1.90;;
13979;SDS011;73871;49.900;8.594;2023-12-22T08:30:34;8.00;;;1.50;;
13979;SDS011;73871;49.900;8.594;2023-12-22T08:33:01;9.83;;;1.90;;
13979;SDS011;73871;49.900;8.594;2023-12-22T08:35:28;4.07;;;1.50;;
13979;SDS011;73871;49.900;8.594;2023-12-22T08:37:55;5.53;;;1.77;;
13979;SDS011;73871;49.900;8.594;2023-12-22T08:40:22;3.50;;;1.40;;
13979;SDS011;73871;49.900;8.594;2023-12-22T08:42:53;6.97;;;1.50;;
13979;SDS011;73871;49.900;8.594;2023-12-22T08:45:27;4.00;;;1.17;;
13979;SDS011;73871;49.900;8.594;2023-12-22T08:47:55;8.90;;;2.13;;
13979;SDS011;73871;49.900;8.594;2023-12-22T08:50:23;5.27;;;1.43;;
13979;SDS011;73871;49.900;8.594;2023-12-22T08:52:50;9.80;;;2.30;;
13979;SDS011;73871;49.900;8.594;2023-12-22T08:55:17;8.00;;;1.50;;
13979;SDS011;73871;49.900;8.594;2023-12-22T08:57:44;5.00;;;1.40;;
13979;SDS011;73871;49.900;8.594;2023-12-22T09:00:22;6.57;;;1.60;;
13979;SDS011;73871;49.900;8.594;2023-12-22T09:02:49;4.77;;;1.57;;
13979;SDS011;73871;49.900;8.594;2023-12-22T09:05:15;5.47;;;1.70;;
13979;SDS011;73871;49.900;8.594;2023-12-22T09:07:44;5.50;;;1.80;;
13979;SDS011;73871;49.900;8.594;2023-12-22T09:10:11;7.50;;;1.80;;
13979;SDS011;73871;49.900;8.594;2023-12-22T09:12:39;5.97;;;1.70;;
13979;SDS011;73871;49.900;8.594;2023-12-22T09:15:05;6.47;;;1.87;;
13979;SDS011;73871;49.900;8.594;2023-12-22T09:17:32;6.03;;;1.97;;
13979;SDS011;73871;49.900;8.594;2023-12-22T09:20:00;6.50;;;1.70;;
13979;SDS011;73871;49.900;8.594;2023-12-22T09:22:27;7.17;;;2.10;;
13979;SDS011;73871;49.900;8.594;2023-12-22T09:24:53;8.43;;;2.07;;
13979;SDS011;73871;49.900;8.594;2023-12-22T09:27:20;6.27;;;1.90;;
13979;SDS011;73871;49.900;8.594;2023-12-22T09:29:47;6.87;;;1.97;;
13979;SDS011;73871;49.900;8.594;2023-12-22T09:32:14;4.97;;;2.00;;
13979;SDS011;73871;49.900;8.594;2023-12-22T09:34:40;5.87;;;1.80;;
13979;SDS011;73871;49.900;8.594;2023-12-22T09:37:07;7.13;;;1.90;;
13979;SDS011;73871;49.900;8.594;2023-12-22T09:39:34;3.53;;;1.80;;
13979;SDS011;73871;49.900;8.594;2023-12-22T09:42:01;5.17;;;2.13;;
13979;SDS011;73871;49.900;8.594;2023-12-22T09:44:29;7.77;;;2.00;;
13979;SDS011;73871;49.900;8.594;2023-12-22T09:46:59;8.20;;;1.80;;
13979;SDS011;73871;49.900;8.594;2023-12-22T09:49:29;5.03;;;1.60;;
13979;SDS011;73871;49.900;8.594;2023-12-22T09:51:56;4.60;;;1.47;;
13979;SDS011;73871;49.900;8.594;2023-12-22T09:54:23;5.00;;;1.47;;
13979;SDS011;73871;49.900;8.594;2023-12-22T09:56:52;4.43;;;1.50;;
13979;SDS011;73871;49.900;8.594;2023-12-22T09:59:19;5.30;;;1.40;;
13979;SDS011;73871;49.900;8.594;2023-12-22T10:01:48;5.23;;;1.30;;
13979;SDS011;73871;49.900;8.594;2023-12-22T10:04:17;4.37;;;1.60;;
13979;SDS011;73871;49.900;8.594;2023-12-22T10:06:44;5.87;;;2.07;;
13979;SDS011;73871;49.900;8.594;2023-12-22T10:09:14;4.83;;;1.63;;
13979;SDS011;73871;49.900;8.594;2023-12-22T10:11:43;6.90;;;2.30;;
13979;SDS011;73871;49.900;8.594;2023-12-22T10:14:10;8.07;;;1.93;;
13979;SDS011;73871;49.900;8.594;2023-12-22T10:16:39;8.20;;;2.07;;
13979;SDS011;73871;49.900;8.594;2023-12-22T10:19:07;8.73;;;2.70;;
13979;SDS011;73871;49.900;8.594;2023-12-22T10:21:35;12.07;;;3.10;;
13979;SDS011;73871;49.900;8.594;2023-12-22T10:24:02;10.97;;;2.70;;
13979;SDS011;73871;49.900;8.594;2023-12-22T10:26:28;9.50;;;3.20;;
13979;SDS011;73871;49.900;8.594;2023-12-22T10:28:55;12.67;;;3.10;;
13979;SDS011;73871;49.900;8.594;2023-12-22T10:31:22;13.13;;;2.93;;
13979;SDS011;73871;49.900;8.594;2023-12-22T10:33:49;13.43;;;3.37;;
13979;SDS011;73871;49.900;8.594;2023-12-22T10:36:15;10.63;;;3.47;;
13979;SDS011;73871;49.900;8.594;2023-12-22T10:38:43;12.10;;;3.30;;
13979;SDS011;73871;49.900;8.594;2023-12-22T10:41:11;13.90;;;3.50;;
13979;SDS011;73871;49.900;8.594;2023-12-22T10:43:38;13.43;;;3.07;;
13979;SDS011;73871;49.900;8.594;2023-12-22T10:46:06;14.60;;;3.37;;
13979;SDS011;73871;49.900;8.594;2023-12-22T10:48:38;16.97;;;3.80;;
13979;SDS011;73871;49.900;8.594;2023-12-22T10:51:10;10.77;;;2.87;;
13979;SDS011;73871;49.900;8.594;2023-12-22T10:53:40;9.80;;;2.80;;
13979;SDS011;73871;49.900;8.594;2023-12-22T10:56:08;13.60;;;3.27;;
13979;SDS011;73871;49.900;8.594;2023-12-22T10:58:34;11.80;;;3.20;;
13979;SDS011;73871;49.900;8.594;2023-12-22T11:01:02;12.33;;;3.30;;
13979;SDS011;73871;49.900;8.594;2023-12-22T11:03:29;10.33;;;2.87;;
13979;SDS011;73871;49.900;8.594;2023-12-22T11:06:00;11.70;;;3.03;;
13979;SDS011;73871;49.900;8.594;2023-12-22T11:08:30;12.13;;;2.67;;
13979;SDS011;73871;49.900;8.594;2023-12-22T11:10:59;10.67;;;3.03;;
13979;SDS011;73871;49.900;8.594;2023-12-22T11:13:35;14.73;;;3.33;;
13979;SDS011;73871;49.900;8.594;2023-12-22T11:16:03;10.97;;;2.70;;
13979;SDS011;73871;49.900;8.594;2023-12-22T11:18:31;11.17;;;3.23;;
13979;SDS011;73871;49.900;8.594;2023-12-22T11:21:01;14.70;;;3.37;;
13979;SDS011;73871;49.900;8.594;2023-12-22T11:23:31;10.83;;;2.87;;
13979;SDS011;73871;49.900;8.594;2023-12-22T11:25:59;13.33;;;2.97;;
13979;SDS011;73871;49.900;8.594;2023-12-22T11:28:29;13.73;;;3.27;;
13979;SDS011;73871;49.900;8.594;2023-12-22T11:30:59;9.77;;;2.90;;
13979;SDS011;73871;49.900;8.594;2023-12-22T11:33:27;8.50;;;2.63;;
13979;SDS011;73871;49.900;8.594;2023-12-22T11:35:56;13.90;;;3.20;;
13979;SDS011;73871;49.900;8.594;2023-12-22T11:38:24;11.57;;;2.87;;
13979;SDS011;73871;49.900;8.594;2023-12-22T11:40:50;9.60;;;2.50;;
13979;SDS011;73871;49.900;8.594;2023-12-22T11:43:19;8.47;;;2.40;;
13979;SDS011;73871;49.900;8.594;2023-12-22T11:45:50;10.03;;;3.20;;
13979;SDS011;73871;49.900;8.594;2023-12-22T11:48:17;9.37;;;2.87;;
13979;SDS011;73871;49.900;8.594;2023-12-22T11:50:44;10.57;;;2.70;;
13979;SDS011;73871;49.900;8.594;2023-12-22T11:53:17;7.33;;;2.33;;
13979;SDS011;73871;49.900;8.594;2023-12-22T11:58:34;8.47;;;2.80;;
13979;SDS011;73871;49.900;8.594;2023-12-22T12:01:03;7.13;;;1.80;;
13979;SDS011;73871;49.900;8.594;2023-12-22T12:03:32;5.80;;;1.67;;
13979;SDS011;73871;49.900;8.594;2023-12-22T12:06:44;7.20;;;1.67;;
13979;SDS011;73871;49.900;8.594;2023-12-22T12:08:55;4.90;;;1.60;;
13979;SDS011;73871;49.900;8.594;2023-12-22T12:11:23;3.83;;;1.33;;
13979;SDS011;73871;49.900;8.594;2023-12-22T12:13:50;5.37;;;1.60;;
13979;SDS011;73871;49.900;8.594;2023-12-22T12:16:18;5.50;;;1.80;;
13979;SDS011;73871;49.900;8.594;2023-12-22T12:18:50;4.90;;;1.77;;
13979;SDS011;73871;49.900;8.594;2023-12-22T12:21:19;4.67;;;1.70;;
13979;SDS011;73871;49.900;8.594;2023-12-22T12:23:46;6.73;;;1.70;;
13979;SDS011;73871;49.900;8.594;2023-12-22T12:26:16;6.50;;;1.60;;
13979;SDS011;73871;49.900;8.594;2023-12-22T12:28:44;3.87;;;1.70;;
13979;SDS011;73871;49.900;8.594;2023-12-22T12:31:12;5.97;;;1.53;;
13979;SDS011;73871;49.900;8.594;2023-12-22T12:33:39;6.93;;;1.87;;
13979;SDS011;73871;49.900;8.594;2023-12-22T12:36:06;3.43;;;1.57;;
13979;SDS011;73871;49.900;8.594;2023-12-22T12:41:25;5.07;;;1.30;;
13979;SDS011;73871;49.900;8.594;2023-12-22T12:43:58;5.70;;;1.90;;
13979;SDS011;73871;49.900;8.594;2023-12-22T12:46:32;4.50;;;1.60;;
13979;SDS011;73871;49.900;8.594;2023-12-22T12:49:03;4.33;;;1.30;;
13979;SDS011;73871;49.900;8.594;2023-12-22T12:51:35;6.80;;;1.50;;
13979;SDS011;73871;49.900;8.594;2023-12-22T12:54:06;6.07;;;1.37;;
13979;SDS011;73871;49.900;8.594;2023-12-22T12:59:14;4.97;;;1.60;;
13979;SDS011;73871;49.900;8.594;2023-12-22T13:01:44;6.97;;;2.17;;
13979;SDS011;73871;49.900;8.594;2023-12-22T13:04:13;5.60;;;1.57;;
13979;SDS011;73871;49.900;8.594;2023-12-22T13:06:50;5.03;;;1.67;;
13979;SDS011;73871;49.900;8.594;2023-12-22T13:09:18;6.00;;;1.53;;
13979;SDS011;73871;49.900;8.594;2023-12-22T13:11:46;3.87;;;1.27;;
13979;SDS011;73871;49.900;8.594;2023-12-22T13:14:23;4.67;;;1.43;;
13979;SDS011;73871;49.900;8.594;2023-12-22T13:16:53;3.07;;;1.03;;
13979;SDS011;73871;49.900;8.594;2023-12-22T13:19:23;3.60;;;1.30;;
13979;SDS011;73871;49.900;8.594;2023-12-22T13:21:54;1.43;;;0.80;;
13979;SDS011;73871;49.900;8.594;2023-12-22T13:24:21;3.17;;;0.83;;
13979;SDS011;73871;49.900;8.594;2023-12-22T13:26:58;2.27;;;1.00;;
13979;SDS011;73871;49.900;8.594;2023-12-22T13:29:30;0.80;;;0.37;;
13979;SDS011;73871;49.900;8.594;2023-12-22T13:32:14;1.20;;;0.50;;
13979;SDS011;73871;49.900;8.594;2023-12-22T13:34:46;1.00;;;0.40;;
13979;SDS011;73871;49.900;8.594;2023-12-22T13:37:15;1.90;;;0.47;;
13979;SDS011;73871;49.900;8.594;2023-12-22T13:39:42;0.50;;;0.30;;
13979;SDS011;73871;49.900;8.594;2023-12-22T13:42:19;0.53;;;0.40;;
13979;SDS011;73871;49.900;8.594;2023-12-22T13:44:48;1.50;;;0.47;;
13979;SDS011;73871;49.900;8.594;2023-12-22T13:47:15;2.17;;;0.50;;
13979;SDS011;73871;49.900;8.594;2023-12-22T13:49:43;0.50;;;0.20;;
13979;SDS011;73871;49.900;8.594;2023-12-22T13:52:29;1.93;;;0.30;;
13979;SDS011;73871;49.900;8.594;2023-12-22T13:55:01;1.23;;;0.40;;
13979;SDS011;73871;49.900;8.594;2023-12-22T13:57:29;0.40;;;0.30;;
13979;SDS011;73871;49.900;8.594;2023-12-22T13:59:55;0.73;;;0.37;;
13979;SDS011;73871;49.900;8.594;2023-12-22T14:02:22;0.80;;;0.30;;
13979;SDS011;73871;49.900;8.594;2023-12-22T14:04:50;0.60;;;0.30;;
13979;SDS011;73871;49.900;8.594;2023-12-22T14:07:17;0.87;;;0.40;;
13979;SDS011;73871;49.900;8.594;2023-12-22T14:09:44;0.50;;;0.20;;
13979;SDS011;73871;49.900;8.594;2023-12-22T14:12:11;0.60;;;0.20;;
13979;SDS011;73871;49.900;8.594;2023-12-22T14:14:46;0.73;;;0.30;;
13979;SDS011;73871;49.900;8.594;2023-12-22T14:17:13;0.30;;;0.20;;
13979;SDS011;73871;49.900;8.594;2023-12-22T14:19:39;1.33;;;0.40;;
13979;SDS011;73871;49.900;8.594;2023-12-22T14:22:06;0.50;;;0.30;;
13979;SDS011;73871;49.900;8.594;2023-12-22T14:24:34;0.40;;;0.30;;
13979;SDS011;73871;49.900;8.594;2023-12-22T14:27:00;0.67;;;0.30;;
13979;SDS011;73871;49.900;8.594;2023-12-22T14:29:27;0.47;;;0.30;;
13979;SDS011;73871;49.900;8.594;2023-12-22T14:31:54;0.40;;;0.30;;
13979;SDS011;73871;49.900;8.594;2023-12-22T14:34:21;0.40;;;0.30;;
13979;SDS011;73871;49.900;8.594;2023-12-22T14:36:48;1.27;;;0.40;;
13979;SDS011;73871;49.900;8.594;2023-12-22T14:39:14;1.03;;;0.30;;
13979;SDS011;73871;49.900;8.594;2023-12-22T14:41:41;0.30;;;0.20;;
13979;SDS011;73871;49.900;8.594;2023-12-22T14:44:08;0.73;;;0.40;;
13979;SDS011;73871;49.900;8.594;2023-12-22T14:46:38;1.90;;;0.50;;
13979;SDS011;73871;49.900;8.594;2023-12-22T14:49:06;2.20;;;0.40;;
13979;SDS011;73871;49.900;8.594;2023-12-22T14:51:37;0.57;;;0.43;;
13979;SDS011;73871;49.900;8.594;2023-12-22T14:54:05;1.00;;;0.40;;
13979;SDS011;73871;49.900;8.594;2023-12-22T14:56:32;1.60;;;0.40;;
13979;SDS011;73871;49.900;8.594;2023-12-22T14:59:00;0.83;;;0.40;;
13979;SDS011;73871;49.900;8.594;2023-12-22T15:01:26;1.40;;;0.50;;